createdAt,value
2022-08-23T00:02:24.587Z,97074.00
2022-08-23T00:05:03.420Z,97065.00
2022-08-23T00:07:39.620Z,97070.00
2022-08-23T00:10:13.121Z,97076.00
2022-08-23T00:12:41.306Z,97068.00
2022-08-23T00:15:13.054Z,97062.00
2022-08-23T00:17:39.967Z,97061.00
2022-08-23T00:20:12.324Z,97061.00
2022-08-23T00:22:40.682Z,97052.00
2022-08-23T00:25:11.882Z,97060.00
2022-08-23T00:27:39.747Z,97060.00
2022-08-23T00:30:11.014Z,97053.00
2022-08-23T00:32:40.169Z,97050.00
2022-08-23T00:35:10.201Z,97048.00
2022-08-23T00:37:38.264Z,97054.00
2022-08-23T00:40:09.980Z,97052.00
2022-08-23T00:43:17.386Z,97060.00
2022-08-23T00:46:40.990Z,97061.00
2022-08-23T00:49:12.139Z,97051.00
2022-08-23T00:51:52.937Z,97049.00
2022-08-23T00:54:24.555Z,97052.00
2022-08-23T00:56:52.961Z,97055.00
2022-08-23T00:59:20.084Z,97050.00
2022-08-23T01:01:49.145Z,97047.00
2022-08-23T01:04:17.390Z,97057.00
2022-08-23T01:06:53.757Z,97050.00
2022-08-23T01:09:22.499Z,97048.00
2022-08-23T01:12:32.348Z,97046.00
2022-08-23T01:15:16.414Z,97056.00
2022-08-23T01:18:01.636Z,97053.00
2022-08-23T01:20:40.927Z,97052.00
2022-08-23T01:23:33.608Z,97052.00
2022-08-23T01:26:01.803Z,97053.00
2022-08-23T01:28:29.344Z,97050.00
2022-08-23T01:30:57.262Z,97054.00
2022-08-23T01:33:24.117Z,97042.00
2022-08-23T01:35:58.060Z,97050.00
2022-08-23T01:38:26.831Z,97049.00
2022-08-23T01:40:57.146Z,97041.00
2022-08-23T01:43:24.727Z,97038.00
2022-08-23T01:45:53.433Z,97041.00
2022-08-23T01:48:21.703Z,97042.00
2022-08-23T01:50:49.082Z,97052.00
2022-08-23T01:53:16.691Z,97047.00
2022-08-23T01:55:44.198Z,97048.00
2022-08-23T01:58:11.471Z,97049.00
2022-08-23T02:00:41.958Z,97048.00
2022-08-23T02:03:12.507Z,97056.00
2022-08-23T02:05:42.287Z,97052.00
2022-08-23T02:08:28.158Z,97042.00
2022-08-23T02:10:55.296Z,97051.00
2022-08-23T02:13:23.092Z,97055.00
2022-08-23T02:15:51.539Z,97051.00
2022-08-23T02:18:22.715Z,97054.00
2022-08-23T02:20:52.263Z,97044.00
2022-08-23T02:23:21.522Z,97052.00
2022-08-23T02:25:51.501Z,97052.00
2022-08-23T02:28:23.523Z,97048.00
2022-08-23T02:30:52.059Z,97047.00
2022-08-23T02:33:19.600Z,97056.00
2022-08-23T02:35:48.005Z,97052.00
2022-08-23T02:38:15.066Z,97057.00
2022-08-23T02:40:42.505Z,97049.00
2022-08-23T02:43:09.638Z,97057.00
2022-08-23T02:45:37.867Z,97056.00
2022-08-23T02:48:06.408Z,97051.00
2022-08-23T02:50:33.626Z,97057.00
2022-08-23T02:53:00.878Z,97062.00
2022-08-23T02:55:28.360Z,97061.00
2022-08-23T02:57:55.647Z,97074.00
2022-08-23T03:00:23.445Z,97065.00
2022-08-23T03:02:50.370Z,97071.00
2022-08-23T03:05:17.921Z,97066.00
2022-08-23T03:07:45.357Z,97075.00
2022-08-23T03:10:13.539Z,97070.00
2022-08-23T03:12:40.406Z,97075.00
2022-08-23T03:15:08.505Z,97069.00
2022-08-23T03:17:35.901Z,97072.00
2022-08-23T03:20:04.331Z,97070.00
2022-08-23T03:22:31.143Z,97072.00
2022-08-23T03:24:58.467Z,97076.00
2022-08-23T03:27:25.310Z,97078.00
2022-08-23T03:29:52.560Z,97082.00
2022-08-23T03:32:19.483Z,97081.00
2022-08-23T03:34:46.798Z,97094.00
2022-08-23T03:37:13.739Z,97088.00
2022-08-23T03:39:41.120Z,97091.00
2022-08-23T03:42:08.570Z,97094.00
2022-08-23T03:44:35.443Z,97095.00
2022-08-23T03:47:02.410Z,97096.00
2022-08-23T03:49:29.396Z,97100.00
2022-08-23T03:51:56.429Z,97104.00
2022-08-23T03:54:23.382Z,97097.00
2022-08-23T03:57:05.527Z,97093.00
2022-08-23T03:59:34.881Z,97103.00
2022-08-23T04:02:01.914Z,97109.00
2022-08-23T04:04:28.982Z,97094.00
2022-08-23T04:06:56.309Z,97099.00
2022-08-23T04:09:23.867Z,97111.00
2022-08-23T04:11:52.285Z,97110.00
2022-08-23T04:14:19.593Z,97113.00
2022-08-23T04:16:46.952Z,97118.00
2022-08-23T04:19:15.951Z,97117.00
2022-08-23T04:21:48.169Z,97114.00
2022-08-23T04:24:16.989Z,97120.00
2022-08-23T04:26:43.864Z,97132.00
2022-08-23T04:29:23.103Z,97128.00
2022-08-23T04:32:02.725Z,97126.00
2022-08-23T04:34:33.770Z,97131.00
2022-08-23T04:37:02.107Z,97133.00
2022-08-23T04:39:29.270Z,97132.00
2022-08-23T04:42:15.062Z,97122.00
2022-08-23T04:44:42.819Z,97123.00
2022-08-23T04:47:10.068Z,97127.00
2022-08-23T04:49:37.047Z,97129.00
2022-08-23T04:52:04.118Z,97125.00
2022-08-23T04:54:31.388Z,97122.00
2022-08-23T04:56:58.341Z,97132.00
2022-08-23T04:59:25.124Z,97124.00
2022-08-23T05:01:52.067Z,97116.00
2022-08-23T05:04:19.048Z,97128.00
2022-08-23T05:06:45.979Z,97130.00
2022-08-23T05:09:19.850Z,97124.00
2022-08-23T05:11:47.497Z,97141.00
2022-08-23T05:14:14.342Z,97137.00
2022-08-23T05:16:41.141Z,97138.00
2022-08-23T05:19:08.009Z,97135.00
2022-08-23T05:21:34.849Z,97143.00
2022-08-23T05:24:03.748Z,97143.00
2022-08-23T05:26:30.764Z,97141.00
2022-08-23T05:28:57.696Z,97144.00
2022-08-23T05:31:26.838Z,97142.00
2022-08-23T05:33:54.039Z,97145.00
2022-08-23T05:36:22.098Z,97145.00
2022-08-23T05:38:50.557Z,97149.00
2022-08-23T05:41:19.156Z,97148.00
2022-08-23T05:43:50.467Z,97153.00
2022-08-23T05:46:21.972Z,97148.00
2022-08-23T05:48:53.572Z,97160.00
2022-08-23T05:51:29.394Z,97159.00
2022-08-23T05:54:01.003Z,97154.00
2022-08-23T05:56:33.229Z,97169.00
2022-08-23T05:59:06.483Z,97166.00
2022-08-23T06:01:40.568Z,97160.00
2022-08-23T06:04:12.416Z,97172.00
2022-08-23T06:06:41.855Z,97171.00
2022-08-23T06:09:14.306Z,97169.00
2022-08-23T06:11:46.529Z,97174.00
2022-08-23T06:14:14.292Z,97174.00
2022-08-23T06:16:46.723Z,97178.00
2022-08-23T06:19:15.081Z,97175.00
2022-08-23T06:21:43.814Z,97171.00
2022-08-23T06:24:12.436Z,97175.00
2022-08-23T06:26:44.554Z,97170.00
2022-08-23T06:29:19.112Z,97183.00
2022-08-23T06:31:51.058Z,97167.00
2022-08-23T06:34:23.325Z,97172.00
2022-08-23T06:36:57.832Z,97169.00
2022-08-23T06:39:27.959Z,97167.00
2022-08-23T06:42:10.188Z,97168.00
2022-08-23T06:44:50.798Z,97172.00
2022-08-23T06:47:18.176Z,97179.00
2022-08-23T06:49:57.441Z,97171.00
2022-08-23T06:52:27.429Z,97174.00
2022-08-23T06:54:54.543Z,97183.00
2022-08-23T06:57:21.786Z,97183.00
2022-08-23T06:59:49.983Z,97182.00
2022-08-23T07:02:17.144Z,97177.00
2022-08-23T07:04:44.277Z,97179.00
2022-08-23T07:07:12.389Z,97185.00
2022-08-23T07:09:40.879Z,97179.00
2022-08-23T07:12:08.720Z,97183.00
2022-08-23T07:14:38.069Z,97188.00
2022-08-23T07:17:05.279Z,97190.00
2022-08-23T09:36:25.698Z,97212.00
2022-08-23T09:39:30.953Z,97215.00
2022-08-23T09:41:59.909Z,97210.00
2022-08-23T09:44:41.985Z,97211.00
2022-08-23T09:47:17.079Z,97213.00
2022-08-23T09:49:48.365Z,97207.00
2022-08-23T09:52:26.981Z,97209.00
2022-08-23T09:55:34.115Z,97209.00
2022-08-23T09:58:06.676Z,97198.00
2022-08-23T10:00:36.373Z,97197.00
2022-08-23T10:03:27.093Z,97205.00
2022-08-23T10:05:58.450Z,97204.00
2022-08-23T10:08:33.420Z,97203.00
2022-08-23T10:11:29.406Z,97199.00
2022-08-23T10:13:56.828Z,97197.00
2022-08-23T10:16:55.831Z,97209.00
2022-08-23T10:19:47.884Z,97204.00
2022-08-23T10:22:26.872Z,97205.00
2022-08-23T10:25:36.743Z,97203.00
2022-08-23T10:28:45.134Z,97208.00
2022-08-23T10:31:32.673Z,97212.00
2022-08-23T10:34:31.240Z,97212.00
2022-08-23T10:37:15.726Z,97204.00
2022-08-23T10:40:04.795Z,97209.00
2022-08-23T10:43:01.501Z,97209.00
2022-08-23T10:45:38.915Z,97208.00
2022-08-23T10:48:29.392Z,97206.00
2022-08-23T10:51:00.821Z,97213.00
2022-08-23T10:53:46.679Z,97204.00
2022-08-23T10:56:21.926Z,97215.00
2022-08-23T10:58:56.994Z,97199.00
2022-08-23T11:01:34.356Z,97210.00
2022-08-23T11:04:07.295Z,97211.00
2022-08-23T11:06:37.257Z,97217.00
2022-08-23T11:09:19.247Z,97216.00
2022-08-23T11:11:59.092Z,97216.00
2022-08-23T11:14:31.927Z,97215.00
2022-08-23T11:17:07.006Z,97215.00
2022-08-23T11:19:52.483Z,97216.00
2022-08-23T11:22:27.224Z,97220.00
2022-08-23T11:25:05.429Z,97215.00
2022-08-23T11:27:40.647Z,97214.00
2022-08-23T11:30:32.524Z,97214.00
2022-08-23T11:33:16.778Z,97223.00
2022-08-23T11:36:22.315Z,97220.00
2022-08-23T11:38:49.107Z,97223.00
2022-08-23T11:41:30.352Z,97228.00
2022-08-23T11:43:57.158Z,97226.00
2022-08-23T11:46:31.610Z,97224.00
2022-08-23T11:49:16.718Z,97235.00
2022-08-23T11:52:11.287Z,97231.00
2022-08-23T11:55:15.078Z,97237.00
2022-08-23T11:58:23.394Z,97235.00
2022-08-23T12:01:12.830Z,97236.00
2022-08-23T12:04:01.622Z,97239.00
2022-08-23T12:06:42.948Z,97242.00
2022-08-23T12:09:21.053Z,97248.00
2022-08-23T12:11:56.499Z,97246.00
2022-08-23T12:14:32.490Z,97253.00
2022-08-23T12:17:26.482Z,97247.00
2022-08-23T12:20:17.042Z,97252.00
2022-08-23T12:23:15.818Z,97253.00
2022-08-23T12:25:43.814Z,97254.00
2022-08-23T12:28:40.745Z,97253.00
2022-08-23T12:31:47.149Z,97249.00
2022-08-23T12:34:32.745Z,97247.00
2022-08-23T12:41:49.265Z,97248.00
2022-08-23T12:44:22.743Z,97257.00
2022-08-23T12:46:50.867Z,97249.00
2022-08-23T12:49:35.133Z,97256.00
2022-08-23T12:52:13.116Z,97243.00
2022-08-23T12:54:46.436Z,97243.00
2022-08-23T12:57:19.671Z,97245.00
2022-08-23T13:28:31.110Z,97238.00
2022-08-23T13:31:07.935Z,97233.00
2022-08-23T13:33:35.164Z,97236.00
2022-08-23T13:36:21.839Z,97237.00
2022-08-23T13:38:49.639Z,97238.00
2022-08-23T13:41:38.508Z,97227.00
2022-08-23T13:44:08.548Z,97230.00
2022-08-23T13:46:45.310Z,97236.00
2022-08-23T13:49:28.511Z,97233.00
2022-08-23T13:54:51.216Z,97236.00
2022-08-23T13:57:20.662Z,97240.00
2022-08-23T13:59:56.035Z,97239.00
2022-08-23T14:02:24.467Z,97234.00
2022-08-23T14:04:52.101Z,97237.00
2022-08-23T14:07:19.702Z,97239.00
2022-08-23T14:09:50.092Z,97232.00
2022-08-23T14:12:25.525Z,97233.00
2022-08-23T14:14:56.784Z,97230.00
2022-08-23T14:17:23.977Z,97234.00
2022-08-23T14:22:38.762Z,97235.00
2022-08-23T14:25:07.673Z,97235.00
2022-08-23T14:27:35.320Z,97236.00
2022-08-23T14:30:04.622Z,97235.00
2022-08-23T14:32:32.312Z,97239.00
2022-08-23T14:34:59.232Z,97236.00
2022-08-23T14:40:13.573Z,97236.00
2022-08-23T14:42:40.715Z,97233.00
2022-08-23T14:45:08.275Z,97238.00
2022-08-23T14:47:35.613Z,97239.00
2022-08-23T14:50:06.785Z,97240.00
2022-08-23T14:52:37.004Z,97236.00
2022-08-23T14:55:04.561Z,97233.00
2022-08-23T14:57:31.496Z,97235.00
2022-08-23T14:59:59.082Z,97236.00
2022-08-23T15:02:27.651Z,97233.00
2022-08-23T15:04:55.721Z,97236.00
2022-08-23T15:07:23.693Z,97228.00
2022-08-23T15:09:54.702Z,97234.00
2022-08-23T15:15:15.784Z,97228.00
2022-08-23T15:17:51.926Z,97224.00
2022-08-23T15:20:21.481Z,97220.00
2022-08-23T15:22:55.250Z,97224.00
2022-08-23T15:25:25.166Z,97225.00
2022-08-23T15:27:52.472Z,97223.00
2022-08-23T15:30:19.732Z,97221.00
2022-08-23T15:32:52.527Z,97224.00
2022-08-23T15:35:25.824Z,97221.00
2022-08-23T15:37:54.743Z,97231.00
2022-08-23T15:57:47.765Z,97231.00
2022-08-23T16:00:17.876Z,97225.00
2022-08-23T16:03:15.891Z,97226.00
2022-08-23T16:05:32.455Z,97236.00
2022-08-23T16:10:34.013Z,97229.00
2022-08-23T16:13:01.275Z,97230.00
2022-08-23T16:15:28.216Z,97229.00
2022-08-23T16:17:55.146Z,97239.00
2022-08-23T16:20:22.279Z,97231.00
2022-08-23T16:22:49.158Z,97240.00
2022-08-23T16:25:16.032Z,97241.00
2022-08-23T16:27:43.176Z,97232.00
2022-08-23T16:30:12.613Z,97241.00
2022-08-23T16:32:40.074Z,97238.00
2022-08-23T16:35:08.422Z,97239.00
2022-08-23T16:37:36.355Z,97238.00
2022-08-23T16:40:07.664Z,97238.00
2022-08-23T16:42:34.679Z,97234.00
2022-08-23T16:45:02.075Z,97235.00
2022-08-23T16:47:32.316Z,97235.00
2022-08-23T16:49:59.243Z,97238.00
2022-08-23T16:52:26.117Z,97237.00
2022-08-23T16:55:07.191Z,97234.00
2022-08-23T16:57:34.325Z,97243.00
2022-08-23T17:00:02.103Z,97244.00
2022-08-23T17:02:35.424Z,97247.00
2022-08-23T17:05:03.350Z,97252.00
2022-08-23T17:07:30.512Z,97257.00
2022-08-23T17:09:57.423Z,97248.00
2022-08-23T17:12:24.281Z,97255.00
2022-08-23T17:14:51.717Z,97253.00
2022-08-23T17:17:18.879Z,97263.00
2022-08-23T17:19:45.729Z,97262.00
2022-08-23T17:22:13.395Z,97258.00
2022-08-23T17:24:40.707Z,97261.00
2022-08-23T17:27:08.141Z,97268.00
2022-08-23T17:29:37.625Z,97262.00
2022-08-23T17:32:05.418Z,97266.00
2022-08-23T17:34:32.640Z,97266.00
2022-08-23T17:36:59.709Z,97263.00
2022-08-23T17:39:29.301Z,97264.00
2022-08-23T17:41:57.857Z,97261.00
2022-08-23T17:44:25.059Z,97266.00
2022-08-23T17:46:52.512Z,97275.00
2022-08-23T17:49:20.264Z,97263.00
2022-08-23T17:51:47.443Z,97281.00
2022-08-23T17:54:15.827Z,97277.00
2022-08-23T17:56:50.182Z,97286.00
2022-08-23T17:59:19.767Z,97289.00
2022-08-23T18:01:46.780Z,97286.00
2022-08-23T18:04:13.900Z,97293.00
2022-08-23T18:06:41.163Z,97293.00
2022-08-23T18:09:08.376Z,97298.00
2022-08-23T18:11:36.200Z,97302.00
2022-08-23T18:14:03.634Z,97307.00
2022-08-23T18:16:35.327Z,97303.00
2022-08-23T18:19:05.889Z,97315.00
2022-08-23T18:21:38.849Z,97327.00
2022-08-23T18:24:07.389Z,97328.00
2022-08-23T18:26:55.358Z,97330.00
2022-08-23T18:29:23.607Z,97324.00
2022-08-23T18:31:51.097Z,97324.00
2022-08-23T18:34:19.277Z,97336.00
2022-08-23T18:36:46.947Z,97331.00
2022-08-23T18:39:15.481Z,97341.00
2022-08-23T18:41:43.094Z,97340.00
2022-08-23T18:44:10.924Z,97355.00
2022-08-23T18:46:41.563Z,97356.00
2022-08-23T18:49:10.452Z,97358.00
2022-08-23T18:51:39.538Z,97356.00
2022-08-23T18:54:07.556Z,97366.00
2022-08-23T18:56:35.157Z,97360.00
2022-08-23T18:59:03.758Z,97365.00
2022-08-23T19:01:36.367Z,97366.00
2022-08-23T19:04:06.157Z,97375.00
2022-08-23T19:06:34.019Z,97382.00
2022-08-23T19:09:01.119Z,97384.00
2022-08-23T19:11:29.694Z,97380.00
2022-08-23T19:13:58.410Z,97389.00
2022-08-23T19:16:26.511Z,97392.00
2022-08-23T19:18:55.056Z,97399.00
2022-08-23T19:21:25.483Z,97395.00
2022-08-23T19:23:56.003Z,97400.00
2022-08-23T19:26:31.686Z,97398.00
2022-08-23T19:29:00.815Z,97401.00
2022-08-23T19:31:33.549Z,97401.00
2022-08-23T19:34:03.444Z,97412.00
2022-08-23T19:36:45.700Z,97405.00
2022-08-23T19:39:13.875Z,97419.00
2022-08-23T19:41:41.964Z,97418.00
2022-08-23T19:44:09.768Z,97421.00
2022-08-23T19:46:41.222Z,97422.00
2022-08-23T19:49:12.579Z,97424.00
2022-08-23T19:51:40.047Z,97418.00
2022-08-23T19:54:11.328Z,97425.00
2022-08-23T19:56:46.915Z,97426.00
2022-08-23T19:59:19.556Z,97423.00
2022-08-23T20:01:52.246Z,97433.00
2022-08-23T20:04:21.013Z,97435.00
2022-08-23T20:06:48.795Z,97432.00
2022-08-23T20:09:16.647Z,97435.00
2022-08-23T20:11:43.631Z,97434.00
2022-08-23T20:14:11.019Z,97440.00
2022-08-23T20:16:40.984Z,97431.00
2022-08-23T20:19:10.195Z,97431.00
2022-08-23T20:21:38.957Z,97437.00
2022-08-23T20:24:07.866Z,97441.00
2022-08-23T20:26:42.066Z,97434.00
2022-08-23T20:29:18.371Z,97431.00
2022-08-23T20:31:56.142Z,97428.00
2022-08-23T20:34:26.463Z,97428.00
2022-08-23T20:36:56.028Z,97419.00
2022-08-23T20:39:24.840Z,97426.00
2022-08-23T20:41:53.012Z,97426.00
2022-08-23T20:44:21.749Z,97431.00
2022-08-23T20:46:53.746Z,97432.00
2022-08-23T20:49:22.452Z,97424.00
2022-08-23T20:51:50.125Z,97432.00
2022-08-23T20:54:18.313Z,97422.00
2022-08-23T20:56:45.454Z,97427.00
2022-08-23T20:59:15.484Z,97428.00
2022-08-23T21:01:42.420Z,97430.00
2022-08-23T21:04:10.349Z,97433.00
2022-08-23T21:06:45.143Z,97434.00
2022-08-23T21:09:17.151Z,97428.00
2022-08-23T21:11:45.675Z,97429.00
2022-08-23T21:14:15.330Z,97426.00
2022-08-23T21:16:44.862Z,97426.00
2022-08-23T21:19:12.004Z,97431.00
2022-08-23T21:21:39.669Z,97429.00
2022-08-23T21:24:09.025Z,97433.00
2022-08-23T21:26:36.636Z,97440.00
2022-08-23T21:29:05.162Z,97435.00
2022-08-23T21:31:32.339Z,97436.00
2022-08-23T21:34:00.526Z,97429.00
2022-08-23T21:36:28.708Z,97418.00
2022-08-23T21:38:55.834Z,97419.00
2022-08-23T21:41:37.190Z,97427.00
2022-08-23T21:44:09.228Z,97423.00
2022-08-23T21:46:42.400Z,97418.00
2022-08-23T21:49:12.406Z,97426.00
2022-08-23T21:51:41.302Z,97424.00
2022-08-23T21:54:11.244Z,97421.00
2022-08-23T21:56:39.517Z,97422.00
2022-08-23T21:59:10.126Z,97427.00
2022-08-23T22:01:39.299Z,97429.00
2022-08-23T22:04:09.819Z,97428.00
2022-08-23T22:06:38.636Z,97420.00
2022-08-23T22:09:09.052Z,97431.00
2022-08-23T22:11:41.627Z,97431.00
2022-08-23T22:14:11.351Z,97431.00
2022-08-23T22:16:40.753Z,97428.00
2022-08-23T22:19:08.016Z,97428.00
2022-08-23T22:21:35.825Z,97422.00
2022-08-23T22:24:02.930Z,97425.00
2022-08-23T22:26:29.870Z,97423.00
2022-08-23T22:28:57.153Z,97413.00
2022-08-23T22:31:24.843Z,97414.00
2022-08-23T22:33:52.771Z,97405.00
2022-08-23T22:36:22.109Z,97410.00
2022-08-23T22:38:50.915Z,97403.00
2022-08-23T22:41:21.921Z,97396.00
2022-08-23T22:43:48.826Z,97407.00
2022-08-23T22:46:16.207Z,97402.00
2022-08-23T22:48:43.487Z,97404.00
2022-08-23T22:51:13.588Z,97404.00
2022-08-23T22:53:47.344Z,97409.00
2022-08-23T22:56:22.207Z,97414.00
2022-08-23T22:58:52.690Z,97408.00
2022-08-23T23:01:27.665Z,97410.00
2022-08-23T23:03:57.638Z,97413.00
2022-08-23T23:06:25.210Z,97413.00
2022-08-23T23:08:52.613Z,97408.00
2022-08-23T23:11:22.104Z,97399.00
2022-08-23T23:13:50.201Z,97404.00
2022-08-23T23:16:23.087Z,97401.00
2022-08-23T23:19:09.232Z,97392.00
2022-08-23T23:21:43.711Z,97395.00
2022-08-23T23:24:15.878Z,97388.00
2022-08-23T23:26:42.974Z,97398.00
2022-08-23T23:29:14.868Z,97396.00
2022-08-23T23:31:42.111Z,97400.00
2022-08-23T23:34:09.612Z,97395.00
2022-08-23T23:36:37.833Z,97388.00
2022-08-23T23:39:06.547Z,97391.00
2022-08-23T23:41:33.337Z,97395.00
2022-08-23T23:44:00.562Z,97397.00
2022-08-23T23:46:28.602Z,97389.00
2022-08-23T23:48:56.022Z,97385.00
2022-08-23T23:51:29.760Z,97387.00
2022-08-23T23:53:59.540Z,97388.00
2022-08-23T23:56:30.540Z,97389.00
2022-08-23T23:58:58.528Z,97393.00
